Time;durP1;ratioP1;P1;durP2;ratioP2;P2;SDS_P1;SDS_P2;PMS_P1;PMS_P2;Temp;Humidity;BMP_temperature;BMP_pressure;BME280_temperature;BME280_humidity;BME280_pressure;Samples;Min_cycle;Max_cycle;Signal;HPM_P1;HPM_P2
2023/01/13 00:00:16;;;;;;;0.60;0.60;;;;;7.80;95630.00;;;;5052810;28;20216;-58
2023/01/13 00:02:44;;;;;;;0.50;0.50;;;;;7.90;95617.00;;;;5052675;28;20702;-58
2023/01/13 00:05:11;;;;;;;0.50;0.50;;;;;7.90;95623.00;;;;5053284;28;20200;-58
2023/01/13 00:07:39;;;;;;;1.30;1.20;;;;;7.90;95618.00;;;;5052733;28;20242;-58
2023/01/13 00:10:08;;;;;;;0.60;0.60;;;;;7.80;95623.00;;;;5052763;28;20287;-59
2023/01/13 00:12:40;;;;;;;0.57;0.57;;;;;7.80;95613.00;;;;5052606;28;20220;-58
2023/01/13 00:15:10;;;;;;;0.70;0.70;;;8.50;84.10;7.80;95614.00;;;;5052701;28;20259;-58
2023/01/13 00:17:37;;;;;;;0.60;0.60;;;8.50;83.90;7.80;95606.00;;;;5052921;28;20188;-58
2023/01/13 00:20:06;;;;;;;0.77;0.77;;;;;7.90;95603.00;;;;5052598;28;20192;-58
2023/01/13 00:22:33;;;;;;;0.73;0.73;;;8.60;83.30;7.80;95617.00;;;;5052556;28;20215;-57
2023/01/13 00:25:03;;;;;;;2.87;1.30;;;;;8.00;95620.00;;;;5053125;28;20216;-58
2023/01/13 00:27:30;;;;;;;0.53;0.53;;;;;8.00;95605.00;;;;5053049;28;20228;-58
2023/01/13 00:29:59;;;;;;;0.60;0.60;;;;;8.10;95607.00;;;;5052510;28;20188;-59
2023/01/13 00:32:27;;;;;;;1.27;1.17;;;;;8.10;95602.00;;;;5052600;28;20274;-57
2023/01/13 00:34:54;;;;;;;1.13;1.13;;;;;8.10;95605.00;;;;5052760;28;20188;-58
2023/01/13 00:37:22;;;;;;;0.90;0.90;;;;;8.00;95588.00;;;;5034672;28;20218;-58
2023/01/13 00:39:50;;;;;;;0.50;0.50;;;;;8.10;95591.00;;;;5052716;28;20203;-58
2023/01/13 00:45:04;;;;;;;0.80;0.80;;;;;8.20;95574.00;;;;5056424;28;20204;-58
2023/01/13 00:47:32;;;;;;;0.60;0.60;;;;;8.30;95586.00;;;;5056047;28;20204;-58
2023/01/13 00:49:59;;;;;;;0.70;0.70;;;;;8.30;95572.00;;;;5038133;28;20574;-59
2023/01/13 00:52:27;;;;;;;0.63;0.60;;;;;8.20;95577.00;;;;5056221;28;20691;-59
2023/01/13 00:54:54;;;;;;;0.60;0.60;;;;;8.50;95570.00;;;;5055968;28;20184;-57
2023/01/13 00:57:22;;;;;;;0.50;0.50;;;;;8.40;95594.00;;;;5055815;28;20196;-59
2023/01/13 00:59:49;;;;;;;0.60;0.60;;;;;8.40;95576.00;;;;5055810;28;20196;-59
2023/01/13 01:02:18;;;;;;;0.50;0.50;;;;;8.40;95587.00;;;;5055558;28;20224;-58
2023/01/13 01:04:45;;;;;;;0.57;0.57;;;;;8.50;95577.00;;;;5055715;28;20242;-58
2023/01/13 01:07:12;;;;;;;1.00;1.00;;;;;8.60;95591.00;;;;5055701;28;20309;-58
2023/01/13 01:09:40;;;;;;;0.50;0.50;;;;;8.40;95581.00;;;;5056187;28;20242;-58
2023/01/13 01:12:07;;;;;;;2.10;0.80;;;;;8.60;95573.00;;;;5055674;28;20208;-58
2023/01/13 01:14:35;;;;;;;0.60;0.60;;;;;8.70;95590.00;;;;5037687;28;20659;-58
2023/01/13 01:17:02;;;;;;;0.50;0.50;;;;;8.50;95588.00;;;;5055766;28;20598;-59
2023/01/13 01:19:31;;;;;;;0.50;0.50;;;;;8.60;95570.00;;;;5037868;28;20232;-58
2023/01/13 01:21:58;;;;;;;0.60;0.60;;;;;8.60;95579.00;;;;5055293;28;20281;-58
2023/01/13 01:24:26;;;;;;;0.50;0.50;;;;;8.50;95582.00;;;;5055624;28;20200;-58
2023/01/13 01:26:53;;;;;;;0.60;0.60;;;;;8.60;95574.00;;;;5055274;28;20196;-58
2023/01/13 01:29:21;;;;;;;0.93;0.87;;;;;8.40;95588.00;;;;5055290;28;20198;-58
2023/01/13 01:31:48;;;;;;;0.60;0.60;;;;;8.20;95589.00;;;;5055382;28;20212;-59
2023/01/13 01:34:16;;;;;;;0.60;0.60;;;;;8.30;95605.00;;;;5055113;28;20199;-58
2023/01/13 01:36:44;;;;;;;0.50;0.50;;;;;8.30;95602.00;;;;5037310;28;20676;-59
2023/01/13 01:39:12;;;;;;;0.60;0.60;;;;;8.30;95589.00;;;;5055079;28;20242;-59
2023/01/13 01:43:57;;;;;;;0.60;0.60;;;;;8.20;95585.00;;;;5055144;28;20231;-59
2023/01/13 01:45:02;;;;;;;0.80;0.80;;;;;8.00;95578.00;;;;5054965;28;20231;-59
2023/01/13 01:47:32;;;;;;;0.60;0.60;;;;;8.20;95583.00;;;;5055238;28;20638;-59
2023/01/13 01:50:01;;;;;;;0.60;0.60;;;;;8.10;95575.00;;;;5055180;28;20279;-58
2023/01/13 01:52:33;;;;;;;0.63;0.63;;;;;8.00;95574.00;;;;5054154;28;20210;-59
2023/01/13 01:55:05;;;;;;;0.53;0.53;;;;;8.10;95574.00;;;;5055361;28;20207;-59
2023/01/13 01:57:39;;;;;;;0.90;0.90;;;;;8.10;95580.00;;;;5054976;28;20192;-58
2023/01/13 02:00:08;;;;;;;0.60;0.60;;;;;8.00;95564.00;;;;5054747;28;20177;-59
2023/01/13 02:02:37;;;;;;;0.60;0.60;;;;;8.00;95570.00;;;;5054503;28;20270;-58
2023/01/13 02:05:05;;;;;;;0.50;0.50;;;;;7.90;95580.00;;;;5055072;28;20192;-58
2023/01/13 02:07:36;;;;;;;0.70;0.70;;;;;8.00;95572.00;;;;5054524;28;20671;-59
2023/01/13 02:10:06;;;;;;;0.43;0.43;;;;;8.10;95581.00;;;;5054791;28;20231;-59
2023/01/13 02:12:34;;;;;;;0.70;0.70;;;;;7.90;95569.00;;;;5054698;28;20690;-58
2023/01/13 02:15:06;;;;;;;0.50;0.50;;;;;7.90;95575.00;;;;5054897;28;20191;-58
2023/01/13 02:17:50;;;;;;;0.60;0.60;;;;;7.80;95579.00;;;;5054422;28;20230;-59
2023/01/13 02:20:47;;;;;;;0.50;0.50;;;;;8.00;95569.00;;;;5054675;28;20257;-58
2023/01/13 02:27:33;;;;;;;0.50;0.50;;;;;7.90;95571.00;;;;5054509;28;20270;-58
2023/01/13 02:33:18;;;;;;;0.80;0.80;;;;;7.80;95559.00;;;;5054008;28;20214;-58
2023/01/13 02:35:50;;;;;;;0.60;0.60;;;;;7.90;95560.00;;;;5054561;28;20239;-58
2023/01/13 02:38:23;;;;;;;0.50;0.50;;;;;7.90;95549.00;;;;5054036;28;20245;-58
2023/01/13 02:40:58;;;;;;;0.60;0.60;;;;;7.80;95558.00;;;;5054131;28;20184;-58
2023/01/13 02:46:25;;;;;;;0.60;0.60;;;;;7.80;95558.00;;;;5053723;28;20196;-59
2023/01/13 02:48:55;;;;;;;0.50;0.50;;;;;7.60;95541.00;;;;5053751;28;20184;-59
2023/01/13 02:51:26;;;;;;;0.60;0.60;;;;;7.70;95534.00;;;;5054180;28;20180;-59
2023/01/13 02:53:58;;;;;;;0.60;0.60;;;;;7.70;95519.00;;;;5053928;28;20177;-59
2023/01/13 02:56:27;;;;;;;0.70;0.70;;;;;7.50;95526.00;;;;5054154;28;20184;-59
2023/01/13 02:58:57;;;;;;;0.70;0.70;;;;;7.70;95516.00;;;;5053868;28;20602;-59
2023/01/13 03:01:26;;;;;;;0.50;0.50;;;;;7.50;95520.00;;;;5053563;28;20281;-59
2023/01/13 03:03:53;;;;;;;0.50;0.50;;;;;7.60;95524.00;;;;5052859;28;20524;-59
2023/01/13 03:06:38;;;;;;;23.13;1.20;;;;;7.60;95515.00;;;;5053358;28;20671;-59
2023/01/13 03:09:11;;;;;;;0.60;0.60;;;;;7.60;95518.00;;;;5052764;28;20265;-59
2023/01/13 03:11:45;;;;;;;0.60;0.60;;;;;7.60;95506.00;;;;5053303;28;20207;-59
2023/01/13 03:14:27;;;;;;;0.53;0.53;;;;;7.60;95512.00;;;;5053878;28;20183;-59
2023/01/13 03:17:16;;;;;;;0.60;0.60;;;;;7.50;95520.00;;;;5053284;28;20188;-59
2023/01/13 03:19:52;;;;;;;0.50;0.50;;;;;7.60;95516.00;;;;5053260;28;20187;-59
2023/01/13 03:22:28;;;;;;;0.83;0.83;;;;;7.70;95509.00;;;;5053049;28;20216;-59
2023/01/13 03:25:00;;;;;;;0.50;0.50;;;;;7.80;95507.00;;;;5053714;28;20190;-59
2023/01/13 03:27:32;;;;;;;0.53;0.53;;;;;7.70;95503.00;;;;5053666;28;20187;-59
2023/01/13 03:30:06;;;;;;;0.50;0.50;;;;;7.80;95518.00;;;;5053392;28;20230;-58
2023/01/13 03:32:39;;;;;;;0.50;0.50;;;;;7.70;95485.00;;;;5053022;28;20234;-59
2023/01/13 03:35:14;;;;;;;0.60;0.60;;;;;7.60;95491.00;;;;5053538;28;20195;-59
2023/01/13 03:37:46;;;;;;;0.70;0.70;;;;;7.70;95490.00;;;;5053092;28;20184;-59
2023/01/13 03:40:18;;;;;;;0.60;0.60;;;;;7.80;95487.00;;;;5053085;28;20242;-59
2023/01/13 03:45:35;;;;;;;0.50;0.50;;;;;7.70;95490.00;;;;5052233;28;20669;-59
2023/01/13 03:48:08;;;;;;;0.57;0.57;;;;;7.80;95482.00;;;;5052928;28;20199;-59
2023/01/13 03:50:40;;;;;;;0.70;0.70;;;;;7.80;95481.00;;;;5052908;28;20650;-59
2023/01/13 03:53:11;;;;;;;1.00;1.00;;;;;7.90;95478.00;;;;5052908;28;20227;-59
2023/01/13 03:55:44;;;;;;;0.63;0.63;;;;;7.80;95467.00;;;;5052886;28;20195;-59
2023/01/13 03:58:15;;;;;;;0.60;0.60;;;;;7.80;95471.00;;;;5052883;28;20184;-59
2023/01/13 04:00:50;;;;;;;0.83;0.83;;;;;7.80;95465.00;;;;5052866;28;20188;-59
2023/01/13 04:03:25;;;;;;;0.60;0.60;;;;;7.80;95458.00;;;;5052578;28;20223;-59
2023/01/13 04:05:59;;;;;;;0.57;0.57;;;;;7.80;95465.00;;;;5053350;28;20180;-59
2023/01/13 04:08:28;;;;;;;0.70;0.70;;;;;7.90;95452.00;;;;5052822;28;20210;-59
2023/01/13 04:11:03;;;;;;;0.60;0.60;;;;;8.00;95448.00;;;;5052870;28;20218;-58
2023/01/13 04:13:35;;;;;;;0.70;0.70;;;;;8.00;95448.00;;;;5052608;28;20257;-59
2023/01/13 04:16:05;;;;;;;0.73;0.73;;;;;8.00;95454.00;;;;5054654;28;20231;-58
2023/01/13 04:18:36;;;;;;;0.53;0.53;;;;;8.00;95450.00;;;;5056598;28;20659;-58
2023/01/13 04:21:04;;;;;;;0.70;0.70;;;;;7.90;95462.00;;;;5057142;28;20200;-58
2023/01/13 04:23:31;;;;;;;0.60;0.60;;;;;7.90;95461.00;;;;5056351;28;20223;-59
2023/01/13 04:25:59;;;;;;;1.80;1.10;;;;;7.80;95449.00;;;;5056451;28;20238;-59
2023/01/13 04:28:27;;;;;;;0.60;0.60;;;;;8.00;95440.00;;;;5056696;28;20528;-59
2023/01/13 04:30:55;;;;;;;0.60;0.60;;;;;7.90;95446.00;;;;5056451;28;20242;-59
2023/01/13 04:33:22;;;;;;;0.57;0.57;;;;;8.00;95454.00;;;;5056296;28;20695;-59
2023/01/13 04:35:51;;;;;;;0.60;0.60;;;;;8.00;95441.00;;;;5056289;28;20659;-59
2023/01/13 04:38:20;;;;;;;0.60;0.60;;;;;8.10;95446.00;;;;5056257;28;20191;-58
2023/01/13 04:40:48;;;;;;;0.57;0.57;;;;;8.00;95440.00;;;;5056198;28;20220;-59
2023/01/13 04:43:16;;;;;;;0.60;0.60;;;;;8.00;95449.00;;;;5056057;28;20219;-59
2023/01/13 04:45:44;;;;;;;0.60;0.60;;;;;8.10;95443.00;;;;5056125;28;20613;-59
2023/01/13 04:48:11;;;;;;;0.53;0.53;;;;;8.10;95436.00;;;;5056558;28;20188;-58
2023/01/13 04:50:39;;;;;;;5.70;1.40;;;;;8.10;95435.00;;;;5056047;28;20203;-58
2023/01/13 04:53:08;;;;;;;0.57;0.57;;;;;8.20;95432.00;;;;5055894;28;20215;-58
2023/01/13 04:55:36;;;;;;;0.60;0.60;;;;;8.20;95447.00;;;;5055933;28;20246;-59
2023/01/13 04:58:04;;;;;;;0.53;0.53;;;;;8.30;95436.00;;;;5056154;28;20195;-58
2023/01/13 05:00:32;;;;;;;0.60;0.60;;;;;8.20;95431.00;;;;5055819;28;20196;-58
2023/01/13 05:03:00;;;;;;;0.70;0.70;;;;;8.20;95422.00;;;;5055705;28;20725;-59
2023/01/13 05:05:28;;;;;;;0.63;0.63;;;;;8.30;95422.00;;;;5055747;28;20250;-59
2023/01/13 05:07:55;;;;;;;0.60;0.60;;;;;8.30;95421.00;;;;5055702;28;20724;-59
2023/01/13 05:10:24;;;;;;;0.67;0.67;;;;;8.30;95425.00;;;;5055554;28;20242;-59
2023/01/13 05:18:23;;;;;;;0.50;0.50;;;;;8.30;95425.00;;;;5055851;28;20180;-60
2023/01/13 05:20:51;;;;;;;0.50;0.50;;;;;8.40;95424.00;;;;5055469;28;20222;-59
2023/01/13 05:26:05;;;;;;;2.20;1.00;;;;;8.40;95419.00;;;;5055638;28;20210;-59
2023/01/13 05:28:33;;;;;;;0.50;0.50;;;;;8.20;95427.00;;;;5054272;28;20196;-59
2023/01/13 05:31:01;;;;;;;0.60;0.60;;;;;8.20;95416.00;;;;5055514;28;20193;-58
2023/01/13 05:33:28;;;;;;;0.70;0.70;;;;;8.30;95423.00;;;;5055119;28;20208;-58
2023/01/13 05:35:55;;;;;;;0.80;0.80;;;;;8.40;95416.00;;;;5055217;28;20246;-59
2023/01/13 05:38:23;;;;;;;0.80;0.80;;;;;8.40;95405.00;;;;5055147;28;20674;-59
2023/01/13 05:43:36;;;;;;;0.50;0.50;;;;;8.30;95402.00;;;;5037363;28;20230;-58
2023/01/13 05:46:06;;;;;;;0.60;0.60;;;;;8.30;95411.00;;;;5055011;28;20659;-60
2023/01/13 05:48:35;;;;;;;0.50;0.50;;;;;8.30;95408.00;;;;5054988;28;20192;-59
2023/01/13 05:51:04;;;;;;;0.60;0.60;;;;;8.20;95408.00;;;;5055198;28;20192;-59
2023/01/13 05:53:32;;;;;;;0.57;0.57;;;;;8.30;95409.00;;;;5055864;28;20598;-58
2023/01/13 05:56:00;;;;;;;0.60;0.60;;;;;8.30;95410.00;;;;5055222;28;20196;-59
2023/01/13 05:58:28;;;;;;;0.60;0.60;;;;;8.30;95421.00;;;;5055053;28;20279;-59
2023/01/13 06:01:02;;;;;;;0.77;0.77;;;;;8.30;95409.00;;;;5054724;28;20253;-59
2023/01/13 06:03:29;;;;;;;0.57;0.57;;;;;8.30;95413.00;;;;5054564;28;20228;-61
2023/01/13 06:06:00;;;;;;;0.50;0.50;;;;;8.20;95420.00;;;;5055576;28;20205;-59
2023/01/13 06:08:28;;;;;;;0.83;0.83;;;;;8.10;95420.00;;;;5036711;28;20516;-59
2023/01/13 06:10:55;;;;;;;0.60;0.60;;;;;8.30;95441.00;;;;5054486;28;20679;-59
2023/01/13 06:13:24;;;;;;;0.50;0.50;;;;;8.30;95442.00;;;;5054352;28;20216;-58
2023/01/13 06:15:51;;;;;;;0.50;0.50;;;;;8.40;95434.00;;;;5054697;28;20196;-59
2023/01/13 06:18:20;;;;;;;0.70;0.70;;;;;8.30;95433.00;;;;5054386;28;20262;-59
2023/01/13 06:20:48;;;;;;;0.50;0.50;;;;;8.20;95437.00;;;;5054218;28;20265;-59
2023/01/13 06:23:15;;;;;;;0.60;0.60;;;;;8.20;95432.00;;;;5054748;28;20227;-59
2023/01/13 06:25:47;;;;;;;0.50;0.50;;;;;8.30;95426.00;;;;5054421;28;20627;-59
2023/01/13 06:28:15;;;;;;;0.50;0.50;;;;;8.40;95424.00;;;;5054656;28;20219;-59
2023/01/13 06:30:46;;;;;;;0.60;0.60;;;;;8.40;95418.00;;;;5054261;28;20559;-59
2023/01/13 06:33:18;;;;;;;0.53;0.53;;;;;8.40;95402.00;;;;5054258;28;20245;-58
2023/01/13 06:35:52;;;;;;;0.87;0.87;;;;;8.30;95415.00;;;;5054609;28;20238;-59
2023/01/13 06:38:22;;;;;;;0.53;0.53;;;;;8.40;95406.00;;;;5054068;28;20685;-59
2023/01/13 06:40:50;;;;;;;0.60;0.60;;;;;8.40;95411.00;;;;5054472;28;20713;-58
2023/01/13 06:43:17;;;;;;;0.50;0.50;;;;;8.40;95407.00;;;;5054105;28;20273;-59
2023/01/13 06:45:49;;;;;;;0.80;0.80;;;;;8.60;95419.00;;;;5053699;28;20655;-58
2023/01/13 06:48:17;;;;;;;0.80;0.80;;;;;8.40;95400.00;;;;5053920;28;20555;-59
2023/01/13 06:50:46;;;;;;;0.50;0.50;;;;;8.40;95413.00;;;;5053858;28;20279;-59
2023/01/13 06:53:13;;;;;;;0.83;0.83;;;;;8.40;95410.00;;;;5053490;28;20265;-59
2023/01/13 06:55:40;;;;;;;0.60;0.60;;;;;8.40;95417.00;;;;5053604;28;20250;-59
2023/01/13 06:58:08;;;;;;;0.60;0.60;;;;;8.30;95411.00;;;;5053448;28;20261;-59
2023/01/13 07:00:36;;;;;;;0.70;0.70;;;;;8.40;95410.00;;;;5035575;28;20552;-59
2023/01/13 07:03:11;;;;;;;0.60;0.60;;;;;8.40;95419.00;;;;5053220;28;20243;-59
2023/01/13 07:05:38;;;;;;;0.60;0.60;;;;;8.30;95407.00;;;;5053463;28;20257;-58
2023/01/13 07:08:08;;;;;;;0.70;0.70;;;;;8.30;95419.00;;;;5053368;28;20199;-58
2023/01/13 07:10:37;;;;;;;0.50;0.50;;;;;8.50;95413.00;;;;5053437;28;20200;-59
2023/01/13 07:15:55;;;;;;;0.60;0.60;;;;;8.30;95420.00;;;;5053164;28;20199;-59
2023/01/13 07:18:23;;;;;;;0.63;0.63;;;;;8.30;95427.00;;;;5053389;28;20622;-59
2023/01/13 07:20:55;;;;;;;0.90;0.90;;;;;8.30;95434.00;;;;5053411;28;20647;-59
2023/01/13 07:23:24;;;;;;;0.70;0.70;;;;;8.40;95410.00;;;;5053200;28;20239;-58
2023/01/13 07:25:51;;;;;;;0.60;0.60;;;;;8.50;95434.00;;;;5053542;28;20203;-59
2023/01/13 07:28:19;;;;;;;0.60;0.60;;;;;8.50;95429.00;;;;5051746;28;20663;-60
2023/01/13 07:30:46;;;;;;;0.50;0.50;;;;;8.60;95433.00;;;;5048939;28;20210;-60
2023/01/13 07:33:14;;;;;;;0.60;0.60;;;;;8.60;95446.00;;;;5050361;28;20215;-60
2023/01/13 07:35:41;;;;;;;0.60;0.60;;;;;8.40;95437.00;;;;5051105;28;20272;-60
2023/01/13 07:38:09;;;;;;;5.40;0.97;;;;;8.50;95434.00;;;;5050225;28;20199;-60
2023/01/13 07:40:39;;;;;;;0.43;0.43;;;;;8.50;95428.00;;;;5050986;28;20686;-60
2023/01/13 07:45:57;;;;;;;0.63;0.63;;;;;8.60;95431.00;;;;5049243;28;20192;-61
2023/01/13 07:48:24;;;;;;;1.00;1.00;;;;;8.50;95435.00;;;;5050508;28;20197;-60
2023/01/13 07:50:52;;;;;;;0.50;0.50;;;;;8.50;95429.00;;;;5053475;28;20233;-60
2023/01/13 07:53:19;;;;;;;0.60;0.60;;;;;8.80;95434.00;;;;5057083;28;20686;-60
2023/01/13 07:55:48;;;;;;;0.60;0.60;;;;;8.70;95446.00;;;;5057361;28;20203;-61
2023/01/13 07:58:15;;;;;;;0.60;0.60;;;;;8.70;95454.00;;;;5056332;28;20721;-61
2023/01/13 08:00:43;;;;;;;0.60;0.60;;;;;8.50;95476.00;;;;5053196;28;20196;-61
2023/01/13 08:03:10;;;;;;;0.50;0.50;;;;;8.40;95467.00;;;;5056630;28;20215;-60
2023/01/13 08:05:37;;;;;;;0.50;0.50;;;;;8.40;95473.00;;;;5055828;28;20207;-60
2023/01/13 08:08:05;;;;;;;1.60;0.80;;;;;8.40;95467.00;;;;5057346;28;20604;-60
2023/01/13 08:10:33;;;;;;;0.50;0.50;;;;;8.20;95483.00;;;;5057067;28;20199;-61
2023/01/13 08:13:19;;;;;;;0.60;0.60;;;;;8.30;95485.00;;;;5037078;28;20212;-60
2023/01/13 08:15:49;;;;;;;0.60;0.60;;;;;8.20;95492.00;;;;5056689;28;20199;-60
2023/01/13 08:18:19;;;;;;;0.50;0.50;;;;;8.20;95473.00;;;;5056528;28;20253;-60
2023/01/13 08:20:47;;;;;;;0.60;0.60;;;;;8.10;95492.00;;;;5056990;28;20210;-60
2023/01/13 08:23:15;;;;;;;0.60;0.60;;;;;8.00;95484.00;;;;5056667;28;20262;-60
2023/01/13 08:25:42;;;;;;;0.67;0.67;;;;;8.20;95492.00;;;;5056944;28;20204;-60
2023/01/13 08:28:11;;;;;;;0.50;0.50;;;;;8.00;95523.00;;;;5056877;28;20207;-60
2023/01/13 08:30:39;;;;;;;0.70;0.70;;;;;7.80;95539.00;;;;5055796;28;20203;-61
2023/01/13 08:33:08;;;;;;;0.50;0.50;;;;;8.00;95524.00;;;;5056751;28;20212;-60
2023/01/13 08:35:37;;;;;;;0.90;0.90;;;;;7.90;95529.00;;;;5057147;28;20207;-60
2023/01/13 08:38:05;;;;;;;0.60;0.60;;;;;7.90;95544.00;;;;5052677;28;20232;-60
2023/01/13 08:40:32;;;;;;;0.60;0.60;;;;;7.90;95548.00;;;;5056395;28;20200;-60
2023/01/13 08:43:00;;;;;;;0.60;0.60;;;;;7.80;95561.00;;;;5055450;28;20235;-60
2023/01/13 08:45:29;;;;;;;0.60;0.60;;;;;7.90;95558.00;;;;5056288;28;20291;-61
2023/01/13 08:47:57;;;;;;;0.60;0.60;;;;;7.90;95571.00;;;;5057117;28;20196;-61
2023/01/13 08:50:24;;;;;;;0.60;0.60;;;;;7.70;95573.00;;;;5055483;28;20196;-59
2023/01/13 08:52:52;;;;;;;0.60;0.60;;;;;7.80;95573.00;;;;5056447;28;20219;-60
2023/01/13 08:55:19;;;;;;;0.60;0.60;;;;;7.80;95592.00;;;;5056238;28;20252;-60
2023/01/13 08:57:47;;;;;;;0.60;0.60;;;;;7.70;95590.00;;;;5056409;28;20199;-60
2023/01/13 09:00:15;;;;;;;0.50;0.50;;;;;7.70;95585.00;;;;5056624;28;20579;-60
2023/01/13 09:02:44;;;;;;;0.67;0.67;;;;;7.40;95607.00;;;;5053505;28;20238;-60
2023/01/13 09:05:12;;;;;;;0.60;0.60;;;;;7.30;95595.00;;;;5052892;28;20195;-60
2023/01/13 09:07:39;;;;;;;0.60;0.60;;;;;7.10;95586.00;;;;5053298;28;20196;-60
2023/01/13 09:10:08;;;;;;;0.50;0.50;;;;;7.00;95614.00;;;;5053400;28;20204;-60
2023/01/13 09:15:21;;;;;;;0.50;0.50;;;;;6.80;95582.00;;;;5053129;28;20199;-60
2023/01/13 09:17:50;;;;;;;0.53;0.53;;;;;6.70;95585.00;;;;5053054;28;20600;-60
2023/01/13 09:20:18;;;;;;;0.57;0.57;;;;;6.80;95585.00;;;;5052991;28;20256;-60
2023/01/13 09:22:45;;;;;;;0.60;0.60;;;;;7.00;95590.00;;;;5051826;28;20275;-61
2023/01/13 09:25:13;;;;;;;0.60;0.60;;;;;7.10;95609.00;;;;5052513;28;20202;-61
2023/01/13 09:27:40;;;;;;;0.50;0.50;;;;;7.10;95598.00;;;;5053008;28;20233;-60
2023/01/13 09:30:09;;;;;;;0.50;0.50;;;;;7.00;95605.00;;;;5052796;28;20210;-60
2023/01/13 09:32:37;;;;;;;0.60;0.60;;;;;7.00;95613.00;;;;5052756;28;20277;-60
2023/01/13 09:35:06;;;;;;;0.50;0.50;;;;;6.70;95609.00;;;;5052624;28;20214;-61
2023/01/13 09:37:35;;;;;;;0.60;0.60;;;;;6.90;95613.00;;;;5052286;28;20726;-60
2023/01/13 09:40:03;;;;;;;0.50;0.50;;;;;7.20;95603.00;;;;5052672;28;20203;-60
2023/01/13 09:45:29;;;;;;;0.70;0.70;;;;;7.10;95611.00;;;;5051915;28;20690;-60
2023/01/13 09:48:05;;;;;;;0.60;0.60;;;;;7.10;95611.00;;;;5052257;28;20194;-60
2023/01/13 09:50:48;;;;;;;0.50;0.50;;;;;7.00;95621.00;;;;5051038;28;20183;-60
2023/01/13 09:53:21;;;;;;;0.60;0.60;;;;;7.00;95618.00;;;;5032199;28;20216;-60
2023/01/13 09:55:49;;;;;;;0.70;0.70;;;;;7.10;95609.00;;;;5051900;28;20192;-59
2023/01/13 09:58:18;;;;;;;0.50;0.50;;;;;7.00;95611.00;;;;5052370;28;20675;-59
2023/01/13 10:00:53;;;;;;;0.60;0.60;;;;;7.00;95616.00;;;;5051818;28;20199;-59
2023/01/13 10:03:26;;;;;;;0.63;0.63;;;;;7.20;95629.00;;;;5051973;28;20227;-60
2023/01/13 10:06:00;;;;;;;0.50;0.50;;;;;7.00;95640.00;;;;5047755;28;20210;-59
2023/01/13 10:08:31;;;;;;;0.50;0.50;;;;;7.10;95635.00;;;;5051808;28;20274;-60
2023/01/13 10:13:12;;;;;;;0.50;0.50;;;;;7.10;95634.00;;;;5052034;28;20184;-59
2023/01/13 10:13:49;;;;;;;0.70;0.70;;;;;7.20;95634.00;;;;5051411;28;20202;-59
2023/01/13 10:16:28;;;;;;;0.60;0.60;;;;;7.40;95638.00;;;;5046952;28;20650;-60
2023/01/13 10:19:04;;;;;;;0.43;0.43;;;;;7.30;95632.00;;;;5048962;28;20283;-59
2023/01/13 10:21:56;;;;;;;0.60;0.60;;;;;7.40;95653.00;;;;5051694;28;20761;-60
2023/01/13 10:24:29;;;;;;;0.50;0.50;;;;;7.10;95650.00;;;;5048563;28;20553;-60
2023/01/13 10:27:03;;;;;;;0.60;0.60;;;;;7.10;95637.00;;;;5051715;28;20625;-60
2023/01/13 10:29:33;;;;;;;0.50;0.50;;;;;6.60;95640.00;;;;5049761;28;20195;-60
2023/01/13 10:32:01;;;;;;;0.60;0.60;;;;;6.50;95650.00;;;;5051239;28;20273;-60
2023/01/13 10:34:29;;;;;;;0.50;0.50;;;;;6.50;95644.00;;;;5051962;28;20242;-59
2023/01/13 10:37:01;;;;;;;0.60;0.60;;;;;6.60;95643.00;;;;5051205;28;20199;-60
2023/01/13 10:39:38;;;;;;;0.60;0.60;;;;;6.50;95665.00;;;;5051905;28;20271;-60
2023/01/13 10:42:12;;;;;;;0.50;0.50;;;;;6.40;95663.00;;;;5046716;28;20303;-60
2023/01/13 10:44:48;;;;;;;0.60;0.60;;;;;6.40;95672.00;;;;5051664;28;20704;-60
2023/01/13 10:47:25;;;;;;;0.90;0.90;;;;;6.20;95677.00;;;;5051036;28;20194;-59
2023/01/13 10:50:23;;;;;;;0.60;0.60;;;;;6.30;95690.00;;;;5051770;28;20274;-60
2023/01/13 10:53:00;;;;;;;0.70;0.70;;;;;6.10;95676.00;;;;5049253;28;20223;-59
2023/01/13 10:55:30;;;;;;;0.50;0.50;;;;;5.90;95667.00;;;;5051336;28;20192;-59
2023/01/13 10:58:11;;;;;;;0.80;0.80;;;;;5.80;95670.00;;;;5051434;28;20269;-59
2023/01/13 11:00:38;;;;;;;0.50;0.50;;;;;5.80;95688.00;;;;5048113;28;20200;-59
2023/01/13 11:03:15;;;;;;;0.60;0.60;;;;;6.10;95675.00;;;;5050574;28;20231;-59
2023/01/13 11:05:52;;;;;;;1.00;1.00;;;;;6.10;95679.00;;;;5051145;28;20187;-59
2023/01/13 11:08:23;;;;;;;0.60;0.60;;;;;6.00;95692.00;;;;5051147;28;20217;-59
2023/01/13 11:10:53;;;;;;;0.50;0.50;;;;;5.90;95704.00;;;;5049966;28;20187;-59
2023/01/13 11:13:25;;;;;;;0.70;0.60;;;;;5.60;95711.00;;;;5051104;28;20223;-59
2023/01/13 11:16:00;;;;;;;0.60;0.60;;;;;5.50;95721.00;;;;5046958;28;20253;-60
2023/01/13 11:18:39;;;;;;;0.50;0.50;;;;;5.50;95699.00;;;;5051358;28;20661;-59
2023/01/13 11:21:11;;;;;;;0.60;0.60;;;;;5.60;95695.00;;;;5050643;28;20216;-59
2023/01/13 11:23:45;;;;;;;0.70;0.70;;;;;5.70;95681.00;;;;5033525;28;20285;-59
2023/01/13 11:26:18;;;;;;;0.50;0.50;;;;;5.70;95677.00;;;;5045353;28;20196;-59
2023/01/13 11:28:52;;;;;;;0.70;0.70;;;;;5.90;95697.00;;;;5050868;28;20230;-59
2023/01/13 11:31:26;;;;;;;0.60;0.60;;;;;5.70;95695.00;;;;5050920;28;20587;-58
2023/01/13 11:33:59;;;;;;;0.60;0.60;;;;;5.70;95664.00;;;;5049587;28;20636;-59
2023/01/13 11:36:34;;;;;;;0.50;0.50;;;;;6.80;95581.00;;;;5050936;28;20192;-59
2023/01/13 11:39:12;;;;;;;0.50;0.50;;;;;8.30;95580.00;;;;5050651;28;20205;-59
2023/01/13 11:41:44;;;;;;;0.50;0.50;;;;;7.90;95653.00;;;;5028476;28;20227;-59
2023/01/13 11:44:19;;;;;;;0.70;0.70;;;;;8.80;95660.00;;;;5049503;28;20206;-58
2023/01/13 11:46:50;;;;;;;0.60;0.60;;;;;9.10;95668.00;;;;5050102;28;20663;-57
2023/01/13 11:49:23;;;;;;;0.50;0.50;;;;;8.00;95687.00;;;;5050683;28;20226;-58
2023/01/13 11:51:58;;;;;;;0.60;0.60;;;;;7.10;95672.00;;;;5050407;28;20219;-59
2023/01/13 11:54:57;;;;;;;0.50;0.50;;;;;7.00;95663.00;;;;5050546;28;20188;-58
2023/01/13 11:57:52;;;;;;;0.53;0.53;;;;;7.80;95599.00;;;;5049582;28;20204;-57
2023/01/13 12:00:32;;;;;;;0.60;0.60;;;;;10.00;95659.00;;;;5046883;28;20686;-59
2023/01/13 12:03:18;;;;;;;0.60;0.60;;;;;9.70;95602.00;;;;5050354;28;20587;-59
2023/01/13 12:06:02;;;;;;;0.50;0.50;;;;;13.00;95677.00;;;;5049619;28;20239;-59
2023/01/13 12:08:51;;;;;;;0.50;0.50;;;;;12.50;95665.00;;;;5050769;28;20192;-58
2023/01/13 12:11:25;;;;;;;0.50;0.50;;;;;12.60;95608.00;;;;5050019;28;20185;-58
2023/01/13 12:14:08;;;;;;;0.47;0.47;;;;;12.80;95628.00;;;;5050710;28;20685;-59
2023/01/13 12:16:38;;;;;;;0.63;0.63;;;;;13.50;95619.00;;;;5048284;28;20250;-58
2023/01/13 12:19:27;;;;;;;0.80;0.80;;;;;12.30;95617.00;;;;5050841;28;20529;-58
2023/01/13 12:22:07;;;;;;;1.70;1.07;;;;;11.40;95626.00;;;;5032235;28;20636;-58
2023/01/13 12:24:43;;;;;;;0.70;0.70;;;;;12.30;95692.00;;;;5050114;28;20212;-58
2023/01/13 12:27:18;;;;;;;0.97;0.97;;;;;12.60;95709.00;;;;5050100;28;20192;-59
2023/01/13 12:29:48;;;;;;;0.50;0.50;;;;;12.10;95644.00;;;;5050207;28;20188;-59
2023/01/13 12:32:19;;;;;;;0.60;0.60;;;;;11.70;95633.00;;;;5050031;28;20224;-58
2023/01/13 12:35:17;;;;;;;1.23;1.17;;;;;13.20;95621.00;;;;5050131;28;20188;-58
2023/01/13 12:37:55;;;;;;;0.63;0.63;;;;;15.30;95618.00;;;;5050737;28;20211;-59
2023/01/13 12:40:42;;;;;;;0.57;0.57;;;14.90;35.00;14.50;95624.00;;;;5053745;28;20275;-59
2023/01/13 12:46:34;;;;;;;0.43;0.43;;;;;14.90;95645.00;;;;5052054;28;20223;-59
2023/01/13 12:49:06;;;;;;;0.50;0.50;;;;;13.50;95640.00;;;;5053242;28;20192;-59
2023/01/13 12:51:36;;;;;;;1.33;1.23;;;15.80;33.50;15.80;95658.00;;;;5053629;28;20227;-59
2023/01/13 12:54:53;;;;;;;0.50;0.50;;;16.70;30.40;17.20;95648.00;;;;5049625;28;20239;-59
2023/01/13 12:57:23;;;;;;;0.70;0.70;;;16.30;29.30;16.70;95646.00;;;;5050440;28;20620;-59
2023/01/13 13:00:16;;;;;;;0.50;0.50;;;16.70;30.70;16.20;95640.00;;;;5053464;28;20210;-59
2023/01/13 13:03:33;;;;;;;0.40;0.40;;;15.30;30.30;17.70;95661.00;;;;5053163;28;20228;-59
2023/01/13 13:06:19;;;;;;;0.60;0.60;;;16.90;31.20;16.10;95722.00;;;;5051839;28;20215;-59
2023/01/13 13:08:58;;;;;;;1.53;1.43;;;;;11.80;95721.00;;;;5047265;28;20227;-59
2023/01/13 13:15:01;;;;;;;0.90;0.90;;;;;12.30;95726.00;;;;5053507;28;20191;-59
2023/01/13 13:18:02;;;;;;;0.50;0.50;;;11.20;45.60;9.80;95722.00;;;;5052681;28;20290;-59
2023/01/13 13:21:01;;;;;;;8.67;1.00;;;;;9.20;95727.00;;;;5030633;28;20200;-58
2023/01/13 13:23:59;;;;;;;0.50;0.50;;;;;9.50;95707.00;;;;5052853;28;20227;-59
2023/01/13 13:26:41;;;;;;;0.80;0.80;;;;;8.80;95698.00;;;;5052649;28;20670;-59
2023/01/13 13:29:45;;;;;;;0.77;0.77;;;;;8.90;95708.00;;;;5053034;28;20199;-60
2023/01/13 13:32:43;;;;;;;0.83;0.77;;;9.60;55.10;8.80;95720.00;;;;5052712;28;20223;-58